Time;durP1;ratioP1;P1;durP2;ratioP2;P2;SDS_P1;SDS_P2;PMS_P1;PMS_P2;Temp;Humidity;BMP_temperature;BMP_pressure;BME280_temperature;BME280_humidity;BME280_pressure;Samples;Min_cycle;Max_cycle;Signal;HPM_P1;HPM_P2
2022/09/24 00:02:13;;;;;;;9.63;5.45;;;;;;;;;;6257059;23;20012;-80
2022/09/24 00:04:58;;;;;;;9.15;5.50;;;;;;;;;;6257289;23;20012;-80
2022/09/24 00:07:44;;;;;;;10.48;6.07;;;;;;;;;;6257520;23;20016;-80
2022/09/24 00:10:30;;;;;;;9.60;6.30;;;;;;;;;;6257384;23;20008;-79
2022/09/24 00:13:17;;;;;;;16.77;7.13;;;;;;;;;;6257083;23;20329;-80
2022/09/24 00:16:08;;;;;;;11.57;6.82;;;;;;;;;;6257035;23;20421;-80
2022/09/24 00:18:53;;;;;;;11.02;6.90;;;;;;;;;;6257456;23;20012;-81
2022/09/24 00:21:40;;;;;;;10.15;6.65;;;;;;;;;;6257586;23;20012;-81
2022/09/24 00:27:28;;;;;;;9.05;6.20;;;;;;;;;;6257625;23;20016;-79
2022/09/24 00:30:14;;;;;;;10.30;5.68;;;;;;;;;;6257102;23;20008;-79
2022/09/24 00:33:00;;;;;;;9.05;5.78;;;;;;;;;;6257106;23;20012;-80
2022/09/24 00:35:45;;;;;;;8.05;5.82;;;;;;;;;;6257315;23;20325;-80
2022/09/24 00:38:32;;;;;;;12.00;7.53;;;;;;;;;;6257315;23;20421;-80
2022/09/24 00:41:19;;;;;;;20.90;11.15;;;;;;;;;;6257204;23;20012;-81
2022/09/24 00:44:39;;;;;;;28.08;14.38;;;;;;;;;;6256906;23;20016;-80
2022/09/24 00:47:38;;;;;;;33.90;17.13;;;;;;;;;;6257040;23;20017;-81
2022/09/24 00:50:30;;;;;;;28.48;15.38;;;;;;;;;;6257003;23;20016;-81
2022/09/24 00:53:19;;;;;;;22.30;11.02;;;;;;;;;;6258184;23;20429;-80
2022/09/24 00:56:09;;;;;;;17.30;9.55;;;;;;;;;;6257828;23;20016;-80
2022/09/24 00:58:57;;;;;;;19.83;9.95;;;;;;;;;;6256940;23;20008;-80
2022/09/24 01:01:47;;;;;;;18.00;9.68;;;;;;;;;;6257376;23;20332;-80
2022/09/24 01:04:32;;;;;;;19.05;9.85;;;;;;;;;;6256412;23;20016;-80
2022/09/24 01:07:17;;;;;;;19.70;10.75;;;;;;;;;;6257173;23;20020;-81
2022/09/24 01:10:03;;;;;;;16.63;10.32;;;;;;;;;;6257484;23;20012;-79
2022/09/24 01:13:00;;;;;;;12.98;8.18;;;;;;;;;;6256612;23;20016;-79
2022/09/24 01:15:56;;;;;;;13.73;7.60;;;;;;;;;;6257051;23;20409;-80
2022/09/24 01:19:08;;;;;;;17.98;7.47;;;;;;;;;;6256454;23;20011;-80
2022/09/24 01:21:58;;;;;;;10.38;7.22;;;;;;;;;;6257041;23;20016;-78
2022/09/24 01:24:59;;;;;;;10.00;6.25;;;;;;;;;;6256429;23;20329;-80
2022/09/24 01:27:59;;;;;;;10.85;7.13;;;;;;;;;;6256598;23;20019;-81
2022/09/24 01:30:48;;;;;;;11.05;7.85;;;;;;;;;;6257412;23;20012;-79
2022/09/24 01:33:36;;;;;;;12.20;8.18;;;;;;;;;;6257000;23;20012;-79
2022/09/24 01:36:23;;;;;;;9.88;6.50;;;;;;;;;;6257156;23;20409;-79
2022/09/24 01:39:09;;;;;;;9.63;5.75;;;;;;;;;;6256761;23;20012;-79
2022/09/24 01:41:56;;;;;;;8.30;5.78;;;;;;;;;;6256838;23;20012;-80
2022/09/24 01:44:43;;;;;;;7.05;5.43;;;;;;;;;;6257688;23;20012;-79
2022/09/24 01:47:32;;;;;;;9.45;6.82;;;;;;;;;;6256596;23;20336;-79
2022/09/24 01:50:18;;;;;;;9.40;6.03;;;;;;;;;;6257211;23;20016;-80
2022/09/24 01:53:17;;;;;;;10.88;5.78;;;;;;;;;;6257080;23;20016;-82
2022/09/24 01:56:10;;;;;;;12.05;6.15;;;;;;;;;;6257067;23;20012;-80
2022/09/24 01:59:03;;;;;;;12.40;8.27;;;;;;;;;;6258243;23;20016;-81
2022/09/24 02:01:56;;;;;;;13.48;7.45;;;;;;;;;;6258181;23;20425;-80
2022/09/24 02:04:46;;;;;;;12.93;8.32;;;;;;;;;;6258826;23;20016;-80
2022/09/24 02:07:38;;;;;;;9.90;6.80;;;;;;;;;;6258128;23;20016;-80
2022/09/24 02:10:28;;;;;;;19.25;11.25;;;;;;;;;;6258377;23;20016;-80
2022/09/24 02:13:18;;;;;;;18.45;11.45;;;;;;;;;;6258374;23;20425;-82
2022/09/24 02:16:04;;;;;;;23.92;14.35;;;;;;;;;;6258118;23;20012;-81
2022/09/24 02:18:53;;;;;;;19.15;12.27;;;;;;;;;;6258375;23;20016;-80
2022/09/24 02:21:40;;;;;;;16.33;9.68;;;;;;;;;;6258003;23;20016;-79
2022/09/24 02:24:41;;;;;;;16.42;9.13;;;;;;;;;;6258647;23;20007;-80
2022/09/24 02:27:27;;;;;;;11.40;7.53;;;;;;;;;;6259432;23;20016;-80
2022/09/24 02:30:13;;;;;;;8.30;6.40;;;;;;;;;;6258969;23;20012;-80
2022/09/24 02:32:59;;;;;;;9.23;6.10;;;;;;;;;;6258324;23;20016;-79
2022/09/24 02:35:44;;;;;;;10.68;6.28;;;;;;;;;;6257707;23;20012;-77
2022/09/24 02:38:30;;;;;;;9.43;5.60;;;;;;;;;;6258338;23;20016;-81
2022/09/24 02:41:15;;;;;;;9.65;6.10;;;;;;;;;;6258210;23;20019;-81
2022/09/24 02:44:01;;;;;;;9.05;5.68;;;;;;;;;;6257890;23;20011;-82
2022/09/24 02:46:47;;;;;;;9.40;5.40;;;;;;;;;;6258970;23;20016;-80
2022/09/24 02:49:33;;;;;;;20.95;8.73;;;;;;;;;;6258265;23;20012;-80
2022/09/24 02:52:20;;;;;;;25.45;11.48;;;;;;;;;;6258788;23;20012;-80
2022/09/24 02:55:06;;;;;;;24.50;10.60;;;;;;;;;;6258554;23;20012;-81
2022/09/24 02:57:51;;;;;;;19.15;9.07;;;;;;;;;;6257803;23;20012;-80
2022/09/24 03:00:36;;;;;;;16.02;8.05;;;;;;;;;;6258769;23;20016;-79
2022/09/24 03:03:23;;;;;;;12.55;7.25;;;;;;;;;;6258322;23;20012;-80
2022/09/24 03:06:11;;;;;;;14.18;8.20;;;;;;;;;;6261727;23;20421;-80
2022/09/24 03:08:56;;;;;;;17.70;9.80;;;;;;;;;;6262216;23;20012;-80
2022/09/24 03:11:42;;;;;;;17.88;9.40;;;;;;;;;;6261964;23;20328;-78
2022/09/24 03:14:27;;;;;;;16.65;9.63;;;;;;;;;;6261594;23;20020;-80
2022/09/24 03:17:13;;;;;;;14.63;7.55;;;;;;;;;;6261985;23;20012;-81
2022/09/24 03:19:58;;;;;;;13.20;7.65;;;;;;;;;;6262186;23;20015;-80
2022/09/24 03:22:48;;;;;;;12.27;7.78;;;;;;;;;;6257544;23;20012;-77
2022/09/24 03:25:33;;;;;;;12.32;7.75;;;;;;;;;;6257770;23;20016;-81
2022/09/24 03:28:20;;;;;;;12.25;7.03;;;;;;;;;;6258197;23;20016;-80
2022/09/24 03:31:06;;;;;;;10.93;7.50;;;;;;;;;;6258377;23;20421;-78
2022/09/24 03:33:52;;;;;;;10.02;6.57;;;;;;;;;;6258111;23;20313;-81
2022/09/24 03:36:38;;;;;;;12.20;6.70;;;;;;;;;;6258113;23;20020;-81
2022/09/24 03:39:24;;;;;;;9.68;5.97;;;;;;;;;;6257787;23;20012;-79
2022/09/24 03:42:09;;;;;;;7.75;5.43;;;;;;;;;;6278469;22;20016;-80
2022/09/24 03:44:55;;;;;;;11.43;6.78;;;;;;;;;;6258504;23;20016;-81
2022/09/24 03:47:41;;;;;;;11.82;6.53;;;;;;;;;;6258926;23;20016;-80
2022/09/24 03:50:26;;;;;;;11.85;6.80;;;;;;;;;;6258034;23;20016;-81
2022/09/24 03:53:13;;;;;;;12.45;8.00;;;;;;;;;;6257662;23;20012;-80
2022/09/24 03:56:01;;;;;;;13.63;7.25;;;;;;;;;;6257998;23;20016;-80
2022/09/24 03:58:46;;;;;;;14.15;6.65;;;;;;;;;;6257809;23;20012;-79
2022/09/24 04:01:35;;;;;;;13.02;7.03;;;;;;;;;;6258637;23;20426;-79
2022/09/24 04:04:19;;;;;;;15.25;7.07;;;;;;;;;;6256602;23;20063;-82
2022/09/24 04:07:04;;;;;;;12.10;7.25;;;;;;;;;;6257962;23;20020;-80
2022/09/24 04:09:50;;;;;;;12.27;7.22;;;;;;;;;;6258153;23;20012;-80
2022/09/24 04:12:35;;;;;;;12.05;7.45;;;;;;;;;;6257608;23;20318;-80
2022/09/24 04:15:22;;;;;;;12.98;8.20;;;;;;;;;;6256862;23;20012;-81
2022/09/24 04:18:07;;;;;;;15.85;9.55;;;;;;;;;;6257037;23;20016;-80
2022/09/24 04:20:59;;;;;;;16.50;9.73;;;;;;;;;;6256305;23;20016;-80
2022/09/24 04:23:45;;;;;;;12.77;8.77;;;;;;;;;;6256616;23;20405;-80
2022/09/24 04:26:30;;;;;;;22.23;10.07;;;;;;;;;;6255716;23;20016;-80
2022/09/24 04:29:15;;;;;;;15.02;10.10;;;;;;;;;;6257145;23;20016;-79
2022/09/24 04:32:02;;;;;;;12.55;9.43;;;;;;;;;;6257666;23;20008;-80
2022/09/24 04:34:47;;;;;;;16.92;10.60;;;;;;;;;;6257008;23;20329;-80
2022/09/24 04:37:33;;;;;;;18.13;10.02;;;;;;;;;;6256918;23;20012;-80
2022/09/24 04:40:19;;;;;;;18.00;9.50;;;;;;;;;;6256913;23;20016;-79
2022/09/24 04:43:05;;;;;;;17.52;10.00;;;;;;;;;;6256613;23;20332;-80
2022/09/24 04:45:50;;;;;;;14.38;10.38;;;;;;;;;;6257069;23;20016;-81
2022/09/24 04:48:37;;;;;;;18.00;10.13;;;;;;;;;;6256414;23;20008;-81
2022/09/24 04:51:22;;;;;;;21.27;11.20;;;;;;;;;;6256881;23;20012;-80
2022/09/24 04:54:08;;;;;;;22.77;12.05;;;;;;;;;;6256856;23;20016;-81
2022/09/24 04:56:53;;;;;;;25.23;12.68;;;;;;;;;;6256418;23;20413;-81
2022/09/24 04:59:38;;;;;;;33.88;11.70;;;;;;;;;;6257557;23;20392;-81
2022/09/24 05:02:24;;;;;;;38.63;11.90;;;;;;;;;;6257039;23;20016;-81
2022/09/24 05:05:10;;;;;;;29.40;11.63;;;;;;;;;;6257104;23;20429;-81
2022/09/24 05:07:57;;;;;;;27.65;11.85;;;;;;;;;;6257110;23;20012;-81
2022/09/24 05:10:42;;;;;;;36.67;12.38;;;;;;;;;;6256386;23;20016;-81
2022/09/24 05:13:27;;;;;;;45.78;13.25;;;;;;;;;;6257169;23;20020;-80
2022/09/24 05:16:13;;;;;;;35.42;13.38;;;;;;;;;;6256847;23;20009;-80
2022/09/24 05:18:58;;;;;;;22.55;11.55;;;;;;;;;;6257719;23;20012;-81
2022/09/24 05:21:45;;;;;;;28.80;12.63;;;;;;;;;;6256922;23;20012;-81
2022/09/24 05:24:29;;;;;;;28.50;11.18;;;;;;;;;;6256700;23;20012;-80
2022/09/24 05:27:14;;;;;;;25.80;11.10;;;;;;;;;;6257847;23;20305;-79
2022/09/24 05:30:00;;;;;;;29.88;10.50;;;;;;;;;;6257038;23;20012;-79
2022/09/24 05:32:50;;;;;;;28.65;11.48;;;;;;;;;;6261280;23;20016;-80
2022/09/24 05:35:36;;;;;;;22.95;9.88;;;;;;;;;;6263559;23;20012;-80
2022/09/24 05:38:22;;;;;;;22.88;10.85;;;;;;;;;;6260826;23;20012;-79
2022/09/24 05:41:07;;;;;;;31.58;11.32;;;;;;;;;;6262960;23;20316;-78
2022/09/24 05:43:54;;;;;;;57.30;12.00;;;;;;;;;;6261941;23;20012;-78
2022/09/24 05:46:39;;;;;;;21.30;11.80;;;;;;;;;;6261993;23;20020;-80
2022/09/24 05:49:25;;;;;;;40.88;13.70;;;;;;;;;;6262319;23;20317;-80
2022/09/24 05:52:10;;;;;;;30.05;13.32;;;;;;;;;;6261900;23;20012;-79
2022/09/24 05:54:55;;;;;;;29.35;14.38;;;;;;;;;;6261794;23;20012;-80
2022/09/24 05:57:41;;;;;;;27.55;14.93;;;;;;;;;;6266461;23;20012;-77
2022/09/24 06:00:26;;;;;;;32.95;14.10;;;;;;;;;;6271593;23;20012;-79
2022/09/24 06:03:14;;;;;;;25.17;14.68;;;;;;;;;;6269714;23;20016;-80
2022/09/24 06:06:01;;;;;;;35.15;15.65;;;;;;;;;;6267357;23;20016;-79
2022/09/24 06:08:46;;;;;;;24.60;13.95;;;;;;;;;;6268436;23;20337;-79
2022/09/24 06:11:34;;;;;;;34.28;17.02;;;;;;;;;;6268677;23;20012;-79
2022/09/24 06:14:19;;;;;;;39.67;15.88;;;;;;;;;;6270562;23;20012;-79
2022/09/24 06:17:05;;;;;;;38.53;18.48;;;;;;;;;;6269855;23;20016;-78
2022/09/24 06:19:51;;;;;;;32.40;16.55;;;;;;;;;;6269737;23;20012;-79
2022/09/24 06:22:36;;;;;;;28.50;16.50;;;;;;;;;;6265844;23;20008;-79
2022/09/24 06:25:23;;;;;;;31.83;18.55;;;;;;;;;;6266183;23;20012;-78
2022/09/24 06:28:09;;;;;;;36.22;19.52;;;;;;;;;;6271569;23;20011;-79
2022/09/24 06:31:01;;;;;;;38.60;19.05;;;;;;;;;;6273393;23;20432;-79
2022/09/24 06:33:46;;;;;;;41.08;21.60;;;;;;;;;;6269077;23;20020;-80
2022/09/24 06:36:31;;;;;;;36.45;20.48;;;;;;;;;;6270246;23;20008;-80
2022/09/24 06:39:17;;;;;;;32.25;20.10;;;;;;;;;;6268897;23;20012;-81
2022/09/24 06:42:04;;;;;;;32.42;17.23;;;;;;;;;;6268589;23;20016;-81
2022/09/24 06:44:52;;;;;;;29.58;15.52;;;;;;;;;;6269036;23;20016;-80
2022/09/24 06:47:38;;;;;;;19.92;13.93;;;;;;;;;;6264167;23;20019;-81
2022/09/24 06:50:26;;;;;;;19.20;13.23;;;;;;;;;;6261170;23;20008;-81
2022/09/24 06:53:12;;;;;;;28.00;11.75;;;;;;;;;;6262652;23;20436;-80
2022/09/24 06:55:58;;;;;;;16.60;11.88;;;;;;;;;;6261442;23;20015;-79
2022/09/24 06:58:44;;;;;;;16.50;11.10;;;;;;;;;;6264010;23;20012;-80
2022/09/24 07:01:29;;;;;;;24.02;12.68;;;;;;;;;;6261577;23;20428;-81
2022/09/24 07:04:15;;;;;;;21.17;12.68;;;;;;;;;;6262599;23;20008;-80
2022/09/24 07:10:09;;;;;;;23.13;11.77;;;;;;;;;;6261697;23;20008;-81
2022/09/24 07:12:55;;;;;;;17.17;10.95;;;;;;;;;;6264266;23;20012;-82
2022/09/24 07:15:41;;;;;;;19.88;10.88;;;;;;;;;;6260904;23;20012;-82
2022/09/24 07:18:27;;;;;;;18.05;11.48;;;;;;;;;;6258088;23;20008;-81
2022/09/24 07:21:12;;;;;;;18.45;11.63;;;;;;;;;;6257207;23;20008;-82
2022/09/24 07:23:58;;;;;;;15.50;10.85;;;;;;;;;;6256741;23;20020;-82
2022/09/24 07:26:43;;;;;;;18.80;10.30;;;;;;;;;;6257922;23;20020;-82
2022/09/24 07:29:29;;;;;;;16.33;9.82;;;;;;;;;;6257292;23;20011;-82
2022/09/24 07:32:16;;;;;;;17.20;9.90;;;;;;;;;;6257479;23;20016;-82
2022/09/24 07:35:02;;;;;;;13.77;9.57;;;;;;;;;;6257524;23;20012;-83
2022/09/24 07:37:47;;;;;;;17.88;9.63;;;;;;;;;;6256668;23;20016;-81
2022/09/24 07:40:33;;;;;;;12.88;8.77;;;;;;;;;;6257320;23;20019;-85
2022/09/24 07:43:21;;;;;;;16.05;7.72;;;;;;;;;;6256795;23;20338;-83
2022/09/24 07:46:07;;;;;;;10.43;6.72;;;;;;;;;;6255755;23;20016;-82
2022/09/24 07:48:55;;;;;;;11.07;6.82;;;;;;;;;;6258061;23;20405;-83
2022/09/24 07:51:41;;;;;;;13.85;8.02;;;;;;;;;;6255770;23;20016;-85
2022/09/24 07:54:29;;;;;;;11.82;7.97;;;;;;;;;;6257564;23;20015;-83
2022/09/24 07:57:14;;;;;;;13.60;8.88;;;;;;;;;;6277698;22;20008;-80
2022/09/24 07:59:59;;;;;;;16.75;10.07;;;;;;;;;;6257126;23;20016;-83
2022/09/24 08:02:46;;;;;;;20.67;12.18;;;;;;;;;;6257840;23;20012;-83
2022/09/24 08:05:32;;;;;;;26.70;12.35;;;;;;;;;;6255989;23;20318;-83
2022/09/24 08:08:19;;;;;;;17.27;9.93;;;;;;;;;;6256025;23;20028;-85
2022/09/24 08:11:07;;;;;;;13.73;7.60;;;;;;;;;;6257518;23;20008;-82
2022/09/24 08:13:54;;;;;;;9.65;7.15;;;;;;;;;;6257124;23;20016;-83
2022/09/24 08:16:40;;;;;;;10.65;7.65;;;;;;;;;;6258185;23;20008;-83
2022/09/24 08:19:27;;;;;;;11.57;7.20;;;;;;;;;;6257543;23;20016;-84
2022/09/24 08:22:13;;;;;;;11.07;7.03;;;;;;;;;;6257427;23;20008;-83
2022/09/24 08:24:58;;;;;;;10.20;7.53;;;;;;;;;;6256496;23;20020;-84
2022/09/24 08:27:43;;;;;;;9.35;6.70;;;;;;;;;;6257620;23;20020;-82
2022/09/24 08:30:30;;;;;;;9.55;6.65;;;;;;;;;;6257472;23;20020;-84
2022/09/24 08:33:15;;;;;;;9.68;6.65;;;;;;;;;;6256730;23;20016;-82
2022/09/24 08:36:03;;;;;;;15.52;8.02;;;;;;;;;;6257020;23;20012;-84
2022/09/24 08:38:53;;;;;;;10.10;6.07;;;;;;;;;;6255690;23;20016;-83
2022/09/24 08:41:42;;;;;;;11.60;7.82;;;;;;;;;;6255373;23;20008;-84
2022/09/24 08:48:14;;;;;;;12.40;7.88;;;;;;;;;;6256782;23;20012;-83
2022/09/24 08:51:06;;;;;;;11.35;8.48;;;;;;;;;;6257275;23;20012;-83
2022/09/24 08:54:04;;;;;;;12.85;6.85;;;;;;;;;;6257570;23;20011;-84
2022/09/24 08:56:56;;;;;;;12.65;8.20;;;;;;;;;;6256051;23;20009;-83
2022/09/24 08:59:46;;;;;;;12.57;8.45;;;;;;;;;;6279349;22;20016;-84
2022/09/24 09:03:02;;;;;;;16.40;8.88;;;;;;;;;;6258050;23;20016;-85
2022/09/24 09:05:51;;;;;;;14.93;9.50;;;;;;;;;;6258204;23;20019;-82
2022/09/24 09:09:01;;;;;;;15.05;9.93;;;;;;;;;;6260398;23;20020;-84
2022/09/24 09:11:50;;;;;;;15.10;10.15;;;;;;;;;;6282222;22;20012;-81
2022/09/24 09:14:45;;;;;;;16.75;9.88;;;;;;;;;;6262268;23;20385;-82
2022/09/24 09:17:44;;;;;;;16.77;9.80;;;;;;;;;;6258086;23;20437;-85
2022/09/24 09:20:37;;;;;;;16.23;9.95;;;;;;;;;;6280092;22;20440;-84
2022/09/24 09:23:46;;;;;;;13.63;9.10;;;;;;;;;;6257090;23;20012;-83
2022/09/24 09:26:34;;;;;;;19.23;10.32;;;;;;;;;;6273457;22;20016;-83
2022/09/24 09:29:26;;;;;;;19.45;10.02;;;;;;;;;;6258749;23;20028;-83
2022/09/24 09:32:30;;;;;;;13.40;9.35;;;;;;;;;;6258935;23;20016;-82
2022/09/24 09:35:21;;;;;;;13.13;9.70;;;;;;;;;;6255975;23;20266;-82
2022/09/24 09:38:28;;;;;;;12.40;8.57;;;;;;;;;;6257941;23;20016;-82
2022/09/24 09:41:51;;;;;;;12.65;8.55;;;;;;;;;;6259452;23;20012;-82
2022/09/24 09:44:46;;;;;;;16.13;9.20;;;;;;;;;;6251685;23;20020;-82
2022/09/24 09:47:33;;;;;;;12.80;9.13;;;;;;;;;;6257583;23;20020;-84
2022/09/24 09:50:25;;;;;;;13.55;8.88;;;;;;;;;;6258169;23;20016;-83
2022/09/24 09:53:25;;;;;;;13.70;8.98;;;;;;;;;;6257929;23;20012;-83
2022/09/24 09:56:11;;;;;;;15.90;9.02;;;;;;;;;;6259285;23;20041;-81
2022/09/24 09:59:10;;;;;;;16.17;9.18;;;;;;;;;;6257911;23;20433;-82
2022/09/24 10:01:56;;;;;;;14.00;9.43;;;;;;;;;;6257831;23;20020;-82
2022/09/24 10:04:42;;;;;;;13.43;9.13;;;;;;;;;;6258857;23;20012;-84
2022/09/24 10:07:30;;;;;;;14.13;9.57;;;;;;;;;;6258731;23;20012;-81
2022/09/24 10:10:23;;;;;;;12.52;9.23;;;;;;;;;;6259053;23;20015;-83
2022/09/24 10:13:12;;;;;;;13.48;9.40;;;;;;;;;;6258292;22;20019;-82
2022/09/24 10:16:07;;;;;;;15.82;9.38;;;;;;;;;;6259106;23;20012;-84
2022/09/24 10:18:53;;;;;;;15.30;9.70;;;;;;;;;;6257914;23;20012;-84
2022/09/24 10:21:38;;;;;;;11.38;8.27;;;;;;;;;;6258964;23;20016;-82
2022/09/24 10:24:26;;;;;;;11.52;7.75;;;;;;;;;;6277817;22;20012;-83
2022/09/24 10:27:18;;;;;;;12.10;8.40;;;;;;;;;;6248422;23;20436;-83
2022/09/24 10:30:33;;;;;;;11.75;7.80;;;;;;;;;;6258184;23;20012;-82
2022/09/24 10:33:19;;;;;;;11.05;7.00;;;;;;;;;;6258479;23;20019;-82
2022/09/24 10:36:31;;;;;;;10.73;7.15;;;;;;;;;;6258047;23;20016;-82
2022/09/24 10:39:20;;;;;;;14.05;7.68;;;;;;;;;;6256997;23;20020;-84
2022/09/24 10:42:28;;;;;;;13.23;7.60;;;;;;;;;;6259141;23;20015;-82
2022/09/24 10:45:14;;;;;;;21.17;10.57;;;;;;;;;;6259672;23;20012;-81
2022/09/24 10:49:10;;;;;;;11.88;7.68;;;;;;;;;;6258866;23;20008;-83
2022/09/24 10:52:16;;;;;;;10.20;6.65;;;;;;;;;;6155690;23;20009;-82
2022/09/24 10:55:20;;;;;;;13.30;6.45;;;;;;;;;;6196404;23;20020;-82
2022/09/24 10:58:27;;;;;;;10.77;7.10;;;;;;;;;;6198058;23;20017;-81
2022/09/24 11:01:18;;;;;;;13.93;6.93;;;;;;;;;;6258039;23;20024;-83
2022/09/24 11:04:41;;;;;;;8.45;4.72;;;;;;;;;;6259129;23;20012;-85
2022/09/24 11:07:47;;;;;;;4.88;3.95;;;;;;;;;;6257813;23;20008;-87
2022/09/24 11:11:04;;;;;;;3.10;2.10;;;;;;;;;;6258740;23;20020;-83
2022/09/24 11:14:06;;;;;;;7.07;3.65;;;;;;;;;;6258922;23;20433;-84
2022/09/24 11:17:32;;;;;;;6.38;3.40;;;;;;;;;;6258679;23;20037;-83
2022/09/24 11:20:26;;;;;;;6.70;4.65;;;;;;;;;;6259062;23;20016;-83
2022/09/24 11:23:31;;;;;;;6.35;3.60;;;;;;;;;;6259143;23;20015;-83
2022/09/24 11:26:44;;;;;;;3.55;2.90;;;;;;;;;;6252166;23;20012;-84
2022/09/24 11:30:08;;;;;;;6.30;3.00;;;;;;;;;;6258666;23;20016;-83
2022/09/24 11:32:54;;;;;;;7.68;3.42;;;;;;;;;;6258190;23;20012;-84
2022/09/24 11:36:12;;;;;;;6.97;2.97;;;;;;;;;;6258202;23;20016;-83
2022/09/24 11:39:34;;;;;;;8.75;3.53;;;;;;;;;;6260108;23;20011;-85
2022/09/24 11:42:36;;;;;;;3.80;2.40;;;;;;;;;;6258695;23;20016;-83
2022/09/24 11:45:40;;;;;;;5.47;2.45;;;;;;;;;;6257376;23;20294;-84
2022/09/24 11:48:39;;;;;;;3.42;2.60;;;;;;;;;;6257906;23;20016;-83
2022/09/24 11:51:49;;;;;;;7.93;3.20;;;;;;;;;;6259781;23;20012;-84
2022/09/24 11:55:00;;;;;;;5.32;2.75;;;;;;;;;;6257901;23;20011;-83
2022/09/24 11:57:56;;;;;;;4.38;2.50;;;;;;;;;;6258302;23;20016;-82
2022/09/24 12:00:48;;;;;;;4.93;2.65;;;;;;;;;;6258379;23;20012;-87
2022/09/24 12:03:43;;;;;;;29.75;6.88;;;;;;;;;;6257823;23;20016;-83
2022/09/24 12:07:03;;;;;;;6.18;3.63;;;;;;;;;;6258363;23;20020;-81
2022/09/24 12:09:59;;;;;;;4.45;2.78;;;;;;;;;;6256858;23;20016;-82
2022/09/24 12:12:48;;;;;;;8.57;2.65;;;;;;;;;;6277072;22;20013;-82
2022/09/24 12:16:06;;;;;;;4.10;2.65;;;;;;;;;;6277885;22;20016;-82
2022/09/24 12:18:55;;;;;;;5.07;3.28;;;;;;;;;;6278424;22;20016;-83
2022/09/24 12:21:44;;;;;;;6.65;2.85;;;;;;;;;;6257424;23;20012;-83
2022/09/24 12:24:45;;;;;;;5.32;2.75;;;;;;;;;;6257663;23;20011;-80
2022/09/24 12:27:36;;;;;;;5.63;2.80;;;;;;;;;;6257676;23;20012;-80
2022/09/24 12:34:15;;;;;;;6.50;3.25;;;;;;;;;;6223896;23;20325;-80
2022/09/24 12:37:17;;;;;;;4.15;2.80;;;;;;;;;;6256359;23;20020;-82
2022/09/24 12:40:18;;;;;;;4.88;2.92;;;;;;;;;;6257831;23;20017;-82
2022/09/24 12:43:14;;;;;;;9.10;2.78;;;;;;;;;;6257406;23;20321;-82
2022/09/24 12:46:04;;;;;;;4.65;3.03;;;;;;;;;;6256911;23;20020;-82
2022/09/24 12:48:51;;;;;;;3.30;2.60;;;;;;;;;;6256820;23;20432;-81
2022/09/24 12:51:38;;;;;;;6.85;3.08;;;;;;;;;;6254606;23;20012;-82
2022/09/24 12:54:34;;;;;;;4.10;3.20;;;;;;;;;;6257188;23;20016;-82
2022/09/24 12:57:24;;;;;;;5.15;3.42;;;;;;;;;;6257852;23;20020;-81
2022/09/24 13:00:32;;;;;;;5.75;3.05;;;;;;;;;;6257350;23;20012;-83
2022/09/24 13:03:34;;;;;;;6.38;3.38;;;;;;;;;;6257169;23;20012;-81
2022/09/24 13:06:34;;;;;;;4.75;2.97;;;;;;;;;;6256363;23;20012;-80
2022/09/24 13:09:37;;;;;;;7.25;2.85;;;;;;;;;;6256750;23;20016;-82
2022/09/24 13:12:30;;;;;;;4.25;2.80;;;;;;;;;;6257551;23;20012;-81
2022/09/24 13:15:31;;;;;;;4.25;2.83;;;;;;;;;;6255840;23;20016;-81
2022/09/24 13:18:23;;;;;;;5.78;3.40;;;;;;;;;;6256021;23;20020;-81
2022/09/24 13:21:21;;;;;;;4.20;3.13;;;;;;;;;;6255662;23;20012;-83
2022/09/24 13:24:11;;;;;;;5.07;3.78;;;;;;;;;;6257040;23;20008;-82
2022/09/24 13:27:29;;;;;;;3.53;2.50;;;;;;;;;;6248216;23;20016;-81
2022/09/24 13:30:18;;;;;;;6.00;3.50;;;;;;;;;;6230904;23;20020;-82
2022/09/24 13:33:20;;;;;;;4.22;2.92;;;;;;;;;;6256418;23;20016;-81
2022/09/24 13:36:05;;;;;;;4.47;2.97;;;;;;;;;;6257099;23;20016;-82
2022/09/24 13:39:06;;;;;;;4.72;2.75;;;;;;;;;;6257797;23;20012;-83
2022/09/24 13:42:14;;;;;;;6.00;2.95;;;;;;;;;;6256659;23;20016;-83
2022/09/24 13:45:14;;;;;;;5.55;3.25;;;;;;;;;;6256906;23;20012;-84
2022/09/24 13:48:13;;;;;;;4.05;2.95;;;;;;;;;;6255788;23;20016;-83
2022/09/24 13:50:59;;;;;;;3.83;2.72;;;;;;;;;;6255873;23;20433;-82
2022/09/24 13:53:52;;;;;;;6.43;3.30;;;;;;;;;;6257811;23;20429;-81
2022/09/24 13:56:41;;;;;;;9.20;3.22;;;;;;;;;;6258689;23;20012;-82
2022/09/24 14:30:16;;;;;;;;;;;;;;;;;;;;;
2022/09/24 14:33:33;;;;;;;6.28;3.42;;;;;;;;;;6248321;23;20012;-82
2022/09/24 14:36:19;;;;;;;4.55;3.00;;;;;;;;;;6278098;22;20020;-82
2022/09/24 14:39:05;;;;;;;6.35;3.78;;;;;;;;;;6257382;23;20016;-82
2022/09/24 14:41:51;;;;;;;5.95;2.95;;;;;;;;;;6258666;23;20012;-83
2022/09/24 14:44:41;;;;;;;4.50;2.97;;;;;;;;;;6257658;23;20012;-81
2022/09/24 14:47:38;;;;;;;4.65;3.45;;;;;;;;;;6278122;22;20397;-83
2022/09/24 14:54:42;;;;;;;5.78;4.28;;;;;;;;;;6258693;23;20168;-82
2022/09/24 14:57:36;;;;;;;11.82;5.75;;;;;;;;;;6257712;23;20008;-81
2022/09/24 15:00:53;;;;;;;6.95;4.15;;;;;;;;;;6256741;23;20016;-82
2022/09/24 15:03:54;;;;;;;8.20;3.22;;;;;;;;;;6257390;23;20016;-83
2022/09/24 15:06:47;;;;;;;5.60;4.00;;;;;;;;;;6256690;23;20012;-82
2022/09/24 15:09:35;;;;;;;5.63;3.30;;;;;;;;;;6236832;23;20012;-83
2022/09/24 15:17:26;;;;;;;5.68;3.88;;;;;;;;;;6195405;23;20024;-87
2022/09/24 15:20:50;;;;;;;6.03;3.88;;;;;;;;;;6167998;23;20176;-86
2022/09/24 15:24:25;;;;;;;5.93;3.67;;;;;;;;;;6195334;23;20017;-86
2022/09/24 15:44:36;;;;;;;13.38;6.50;;;;;;;;;;6192455;23;20017;-82
2022/09/24 15:57:12;;;;;;;;;;;;;;;;;;;;;
2022/09/24 16:01:07;;;;;;;11.77;7.13;;;;;;;;;;6256677;23;20012;-81
2022/09/24 16:05:20;;;;;;;;;;;;;;;;;;;;;
2022/09/24 16:12:58;;;;;;;14.07;8.20;;;;;;;;;;6193958;23;20020;-82
2022/09/24 16:21:27;;;;;;;16.58;10.35;;;;;;;;;;6019191;23;20937;-84
2022/09/24 16:55:11;;;;;;;35.00;20.63;;;;;;;;;;6019164;23;20354;-83
2022/09/24 16:57:57;;;;;;;41.08;22.05;;;;;;;;;;6055561;23;20447;-81
2022/09/24 17:00:42;;;;;;;41.83;22.55;;;;;;;;;;6204769;23;20016;-84
2022/09/24 17:03:28;;;;;;;39.75;19.58;;;;;;;;;;6226729;23;20009;-84
2022/09/24 17:06:18;;;;;;;36.50;20.55;;;;;;;;;;6205584;23;20012;-86
2022/09/24 17:12:12;;;;;;;69.93;35.37;;;;;;;;;;6226872;23;20013;-85
2022/09/24 17:14:57;;;;;;;62.83;32.55;;;;;;;;;;6227222;23;20017;-82
2022/09/24 17:17:42;;;;;;;53.67;29.95;;;;;;;;;;6226604;23;20020;-84
2022/09/24 17:20:31;;;;;;;51.22;26.33;;;;;;;;;;6227055;23;20020;-85
2022/09/24 17:23:17;;;;;;;46.15;25.48;;;;;;;;;;6204443;23;20414;-83
2022/09/24 17:26:13;;;;;;;51.33;27.65;;;;;;;;;;6226272;23;20008;-85
2022/09/24 17:29:05;;;;;;;43.10;25.45;;;;;;;;;;6207806;23;20017;-83
2022/09/24 17:52:29;;;;;;;89.93;45.72;;;;;;;;;;6261838;23;20023;-75
2022/09/24 17:55:15;;;;;;;80.53;41.65;;;;;;;;;;6265021;23;20016;-79
2022/09/24 17:58:00;;;;;;;85.32;46.33;;;;;;;;;;6261495;23;20020;-78
2022/09/24 18:00:48;;;;;;;96.60;45.80;;;;;;;;;;6264273;23;20458;-76
2022/09/24 18:03:34;;;;;;;104.43;52.80;;;;;;;;;;6264217;23;20016;-78
2022/09/24 18:06:20;;;;;;;68.38;36.63;;;;;;;;;;6261119;23;20035;-76
2022/09/24 18:09:05;;;;;;;56.30;30.73;;;;;;;;;;6258471;23;20016;-76
2022/09/24 18:11:51;;;;;;;64.65;35.78;;;;;;;;;;6258325;23;20457;-76
2022/09/24 18:14:37;;;;;;;72.85;36.28;;;;;;;;;;6235209;23;20016;-77
2022/09/24 18:17:22;;;;;;;99.80;47.38;;;;;;;;;;6259278;23;20022;-75
2022/09/24 18:20:09;;;;;;;109.40;57.38;;;;;;;;;;6258443;23;20016;-79
2022/09/24 18:22:55;;;;;;;98.72;50.22;;;;;;;;;;6258853;23;20020;-76
2022/09/24 18:25:41;;;;;;;98.78;52.50;;;;;;;;;;6258450;23;20020;-76
2022/09/24 18:28:27;;;;;;;84.07;44.85;;;;;;;;;;6258072;23;20012;-76
2022/09/24 18:31:14;;;;;;;65.10;35.70;;;;;;;;;;6258119;23;20023;-75
2022/09/24 18:34:04;;;;;;;62.10;34.33;;;;;;;;;;6256425;23;20450;-76
2022/09/24 18:36:50;;;;;;;56.47;32.40;;;;;;;;;;6258619;23;20023;-75
2022/09/24 18:39:35;;;;;;;42.80;26.45;;;;;;;;;;6235636;23;20024;-75
2022/09/24 18:42:21;;;;;;;42.35;23.35;;;;;;;;;;6257332;23;20019;-77
2022/09/24 18:45:07;;;;;;;31.83;18.33;;;;;;;;;;6258623;23;20020;-76
2022/09/24 18:47:56;;;;;;;21.33;13.45;;;;;;;;;;6247646;23;20095;-77
2022/09/24 18:50:43;;;;;;;22.13;14.15;;;;;;;;;;6252216;23;20024;-76
2022/09/24 18:53:30;;;;;;;46.40;27.77;;;;;;;;;;6258171;23;20020;-77
2022/09/24 18:56:15;;;;;;;55.90;31.00;;;;;;;;;;6258224;23;20020;-77
2022/09/24 18:59:03;;;;;;;47.20;29.60;;;;;;;;;;6257734;23;20389;-76
2022/09/24 19:01:49;;;;;;;48.28;28.25;;;;;;;;;;6235378;23;20020;-76
2022/09/24 19:04:35;;;;;;;51.10;26.92;;;;;;;;;;6258368;23;20020;-78
2022/09/24 19:07:20;;;;;;;62.28;32.75;;;;;;;;;;6257318;23;20016;-78
2022/09/24 19:10:07;;;;;;;53.65;29.30;;;;;;;;;;6258343;23;20020;-77
2022/09/24 19:12:54;;;;;;;98.90;47.22;;;;;;;;;;6258719;23;20020;-76
2022/09/24 19:15:41;;;;;;;127.95;57.78;;;;;;;;;;6257827;23;20434;-77
2022/09/24 19:18:27;;;;;;;95.53;44.63;;;;;;;;;;6257863;23;20319;-77
2022/09/24 19:21:14;;;;;;;103.13;47.15;;;;;;;;;;6257641;23;20012;-76